sensor_id;sensor_type;location;lat;lon;timestamp;temperature;humidity
56103;DHT22;41970;48.774;9.280;2023-06-26T00:00:54;21.60;83.60
56103;DHT22;41970;48.774;9.280;2023-06-26T00:03:19;21.50;83.90
56103;DHT22;41970;48.774;9.280;2023-06-26T00:05:45;21.50;83.90
56103;DHT22;41970;48.774;9.280;2023-06-26T00:08:11;21.50;83.70
56103;DHT22;41970;48.774;9.280;2023-06-26T00:10:37;21.60;83.60
56103;DHT22;41970;48.774;9.280;2023-06-26T00:13:02;21.50;83.80
56103;DHT22;41970;48.774;9.280;2023-06-26T00:15:28;21.50;84.10
56103;DHT22;41970;48.774;9.280;2023-06-26T00:17:57;21.40;84.40
56103;DHT22;41970;48.774;9.280;2023-06-26T00:20:23;21.50;84.30
56103;DHT22;41970;48.774;9.280;2023-06-26T00:22:50;21.50;84.30
56103;DHT22;41970;48.774;9.280;2023-06-26T00:25:16;21.50;84.00
56103;DHT22;41970;48.774;9.280;2023-06-26T00:27:42;21.60;84.20
56103;DHT22;41970;48.774;9.280;2023-06-26T00:30:08;21.50;84.60
56103;DHT22;41970;48.774;9.280;2023-06-26T00:32:34;21.40;85.00
56103;DHT22;41970;48.774;9.280;2023-06-26T00:35:00;21.40;85.00
56103;DHT22;41970;48.774;9.280;2023-06-26T00:37:25;21.30;85.20
56103;DHT22;41970;48.774;9.280;2023-06-26T00:39:51;21.30;85.60
56103;DHT22;41970;48.774;9.280;2023-06-26T00:42:17;21.20;85.40
56103;DHT22;41970;48.774;9.280;2023-06-26T00:44:42;21.30;85.60
56103;DHT22;41970;48.774;9.280;2023-06-26T00:47:10;21.30;85.80
56103;DHT22;41970;48.774;9.280;2023-06-26T00:49:39;21.30;85.60
56103;DHT22;41970;48.774;9.280;2023-06-26T00:52:06;21.40;85.40
56103;DHT22;41970;48.774;9.280;2023-06-26T00:54:32;21.30;85.50
56103;DHT22;41970;48.774;9.280;2023-06-26T00:56:58;21.30;85.90
56103;DHT22;41970;48.774;9.280;2023-06-26T00:59:23;21.20;86.10
56103;DHT22;41970;48.774;9.280;2023-06-26T01:01:49;21.10;86.50
56103;DHT22;41970;48.774;9.280;2023-06-26T01:04:15;21.00;86.80
56103;DHT22;41970;48.774;9.280;2023-06-26T01:06:46;20.90;87.20
56103;DHT22;41970;48.774;9.280;2023-06-26T01:09:21;20.90;87.20
56103;DHT22;41970;48.774;9.280;2023-06-26T01:11:47;21.00;87.10
56103;DHT22;41970;48.774;9.280;2023-06-26T01:14:13;21.00;87.40
56103;DHT22;41970;48.774;9.280;2023-06-26T01:16:40;20.90;87.70
56103;DHT22;41970;48.774;9.280;2023-06-26T01:19:11;20.80;87.90
56103;DHT22;41970;48.774;9.280;2023-06-26T01:21:42;20.80;88.40
56103;DHT22;41970;48.774;9.280;2023-06-26T01:24:18;20.70;88.30
56103;DHT22;41970;48.774;9.280;2023-06-26T01:26:49;20.70;88.80
56103;DHT22;41970;48.774;9.280;2023-06-26T01:29:18;20.70;88.90
56103;DHT22;41970;48.774;9.280;2023-06-26T01:31:44;20.70;88.90
56103;DHT22;41970;48.774;9.280;2023-06-26T01:34:14;20.70;88.90
56103;DHT22;41970;48.774;9.280;2023-06-26T01:36:40;20.70;88.70
56103;DHT22;41970;48.774;9.280;2023-06-26T01:39:06;20.60;88.90
56103;DHT22;41970;48.774;9.280;2023-06-26T01:41:34;20.60;89.00
56103;DHT22;41970;48.774;9.280;2023-06-26T01:49:30;20.40;89.60
56103;DHT22;41970;48.774;9.280;2023-06-26T01:54:35;20.60;88.90
56103;DHT22;41970;48.774;9.280;2023-06-26T01:57:04;20.60;89.30
56103;DHT22;41970;48.774;9.280;2023-06-26T01:59:32;20.60;89.40
56103;DHT22;41970;48.774;9.280;2023-06-26T02:02:01;20.60;89.60
56103;DHT22;41970;48.774;9.280;2023-06-26T02:04:26;20.40;89.60
56103;DHT22;41970;48.774;9.280;2023-06-26T02:06:52;20.40;90.00
56103;DHT22;41970;48.774;9.280;2023-06-26T02:09:18;20.40;90.00
56103;DHT22;41970;48.774;9.280;2023-06-26T02:11:44;20.40;89.90
56103;DHT22;41970;48.774;9.280;2023-06-26T02:14:10;20.40;90.10
56103;DHT22;41970;48.774;9.280;2023-06-26T02:16:36;20.40;90.10
56103;DHT22;41970;48.774;9.280;2023-06-26T02:19:02;20.40;90.00
56103;DHT22;41970;48.774;9.280;2023-06-26T02:21:28;20.50;90.00
56103;DHT22;41970;48.774;9.280;2023-06-26T02:23:53;20.60;89.80
56103;DHT22;41970;48.774;9.280;2023-06-26T02:26:19;20.50;90.10
56103;DHT22;41970;48.774;9.280;2023-06-26T02:28:46;20.40;90.20
56103;DHT22;41970;48.774;9.280;2023-06-26T02:31:11;20.30;90.30
56103;DHT22;41970;48.774;9.280;2023-06-26T02:33:37;20.30;90.30
56103;DHT22;41970;48.774;9.280;2023-06-26T02:36:03;20.30;90.30
56103;DHT22;41970;48.774;9.280;2023-06-26T02:38:29;20.20;90.40
56103;DHT22;41970;48.774;9.280;2023-06-26T02:40:54;20.30;90.20
56103;DHT22;41970;48.774;9.280;2023-06-26T02:43:20;20.30;90.50
56103;DHT22;41970;48.774;9.280;2023-06-26T02:45:46;20.20;90.40
56103;DHT22;41970;48.774;9.280;2023-06-26T02:48:12;20.10;90.60
56103;DHT22;41970;48.774;9.280;2023-06-26T02:50:37;20.10;90.60
56103;DHT22;41970;48.774;9.280;2023-06-26T02:53:03;20.10;90.60
56103;DHT22;41970;48.774;9.280;2023-06-26T02:55:29;20.30;90.50
56103;DHT22;41970;48.774;9.280;2023-06-26T02:57:54;20.30;90.50
56103;DHT22;41970;48.774;9.280;2023-06-26T03:00:20;20.30;90.50
56103;DHT22;41970;48.774;9.280;2023-06-26T03:02:46;20.30;90.50
56103;DHT22;41970;48.774;9.280;2023-06-26T03:05:11;20.30;90.50
56103;DHT22;41970;48.774;9.280;2023-06-26T03:07:39;20.20;90.50
56103;DHT22;41970;48.774;9.280;2023-06-26T03:10:05;20.20;90.60
56103;DHT22;41970;48.774;9.280;2023-06-26T03:12:31;20.10;90.50
56103;DHT22;41970;48.774;9.280;2023-06-26T03:14:57;20.10;90.60
56103;DHT22;41970;48.774;9.280;2023-06-26T03:17:23;20.10;90.70
56103;DHT22;41970;48.774;9.280;2023-06-26T03:19:48;20.10;90.80
56103;DHT22;41970;48.774;9.280;2023-06-26T03:22:14;20.10;90.70
56103;DHT22;41970;48.774;9.280;2023-06-26T03:24:40;20.10;90.50
56103;DHT22;41970;48.774;9.280;2023-06-26T03:27:06;20.20;90.60
56103;DHT22;41970;48.774;9.280;2023-06-26T03:29:32;20.20;90.40
56103;DHT22;41970;48.774;9.280;2023-06-26T03:31:57;20.20;90.50
56103;DHT22;41970;48.774;9.280;2023-06-26T03:34:23;20.20;90.80
56103;DHT22;41970;48.774;9.280;2023-06-26T03:36:49;20.10;90.70
56103;DHT22;41970;48.774;9.280;2023-06-26T03:39:15;20.00;90.80
56103;DHT22;41970;48.774;9.280;2023-06-26T03:41:40;20.00;90.90
56103;DHT22;41970;48.774;9.280;2023-06-26T03:44:06;20.00;91.00
56103;DHT22;41970;48.774;9.280;2023-06-26T03:46:32;20.00;91.00
56103;DHT22;41970;48.774;9.280;2023-06-26T03:48:58;19.90;90.90
56103;DHT22;41970;48.774;9.280;2023-06-26T03:51:23;19.80;90.60
56103;DHT22;41970;48.774;9.280;2023-06-26T03:53:49;19.80;90.90
56103;DHT22;41970;48.774;9.280;2023-06-26T03:56:15;19.80;91.00
56103;DHT22;41970;48.774;9.280;2023-06-26T03:58:40;19.80;91.00
56103;DHT22;41970;48.774;9.280;2023-06-26T04:01:06;19.70;91.20
56103;DHT22;41970;48.774;9.280;2023-06-26T04:03:33;19.80;91.30
56103;DHT22;41970;48.774;9.280;2023-06-26T04:05:59;19.80;91.10
56103;DHT22;41970;48.774;9.280;2023-06-26T04:08:25;19.80;91.30
56103;DHT22;41970;48.774;9.280;2023-06-26T04:10:52;19.90;91.40
56103;DHT22;41970;48.774;9.280;2023-06-26T04:13:19;19.90;91.30
56103;DHT22;41970;48.774;9.280;2023-06-26T04:15:45;19.80;91.20
56103;DHT22;41970;48.774;9.280;2023-06-26T04:18:10;19.80;91.50
56103;DHT22;41970;48.774;9.280;2023-06-26T04:20:39;19.80;91.20
56103;DHT22;41970;48.774;9.280;2023-06-26T04:23:06;19.80;91.40
56103;DHT22;41970;48.774;9.280;2023-06-26T04:25:32;19.90;91.40
56103;DHT22;41970;48.774;9.280;2023-06-26T04:27:59;19.90;91.40
56103;DHT22;41970;48.774;9.280;2023-06-26T04:30:24;20.00;91.50
56103;DHT22;41970;48.774;9.280;2023-06-26T04:32:50;20.20;91.70
56103;DHT22;41970;48.774;9.280;2023-06-26T04:35:16;20.20;91.50
56103;DHT22;41970;48.774;9.280;2023-06-26T04:37:41;20.30;91.50
56103;DHT22;41970;48.774;9.280;2023-06-26T04:40:08;20.30;91.30
56103;DHT22;41970;48.774;9.280;2023-06-26T04:42:35;20.30;91.30
56103;DHT22;41970;48.774;9.280;2023-06-26T04:45:00;20.20;91.40
56103;DHT22;41970;48.774;9.280;2023-06-26T04:47:28;20.20;91.40
56103;DHT22;41970;48.774;9.280;2023-06-26T04:49:53;20.30;91.80
56103;DHT22;41970;48.774;9.280;2023-06-26T04:52:20;20.30;91.40
56103;DHT22;41970;48.774;9.280;2023-06-26T04:54:46;20.40;91.40
56103;DHT22;41970;48.774;9.280;2023-06-26T04:57:12;20.40;91.70
56103;DHT22;41970;48.774;9.280;2023-06-26T04:59:37;20.40;91.80
56103;DHT22;41970;48.774;9.280;2023-06-26T05:02:03;20.40;91.60
56103;DHT22;41970;48.774;9.280;2023-06-26T05:04:30;20.40;91.70
56103;DHT22;41970;48.774;9.280;2023-06-26T05:06:56;20.50;91.70
56103;DHT22;41970;48.774;9.280;2023-06-26T05:09:21;20.50;91.90
56103;DHT22;41970;48.774;9.280;2023-06-26T05:11:47;20.50;91.90
56103;DHT22;41970;48.774;9.280;2023-06-26T05:14:13;20.50;92.00
56103;DHT22;41970;48.774;9.280;2023-06-26T05:16:39;20.60;92.00
56103;DHT22;41970;48.774;9.280;2023-06-26T05:19:04;20.60;91.70
56103;DHT22;41970;48.774;9.280;2023-06-26T05:21:30;20.60;91.80
56103;DHT22;41970;48.774;9.280;2023-06-26T05:23:57;20.70;91.80
56103;DHT22;41970;48.774;9.280;2023-06-26T05:26:24;20.80;91.90
56103;DHT22;41970;48.774;9.280;2023-06-26T05:28:50;20.80;91.60
56103;DHT22;41970;48.774;9.280;2023-06-26T05:31:16;20.80;91.70
56103;DHT22;41970;48.774;9.280;2023-06-26T05:33:44;21.00;91.50
56103;DHT22;41970;48.774;9.280;2023-06-26T05:36:12;21.00;91.40
56103;DHT22;41970;48.774;9.280;2023-06-26T05:38:39;21.10;91.80
56103;DHT22;41970;48.774;9.280;2023-06-26T05:41:05;21.10;91.20
56103;DHT22;41970;48.774;9.280;2023-06-26T05:43:31;21.20;91.00
56103;DHT22;41970;48.774;9.280;2023-06-26T05:45:57;21.30;90.70
56103;DHT22;41970;48.774;9.280;2023-06-26T05:48:25;21.30;90.80
56103;DHT22;41970;48.774;9.280;2023-06-26T05:50:51;21.40;90.70
56103;DHT22;41970;48.774;9.280;2023-06-26T05:53:17;21.50;90.50
56103;DHT22;41970;48.774;9.280;2023-06-26T05:55:43;21.60;90.40
56103;DHT22;41970;48.774;9.280;2023-06-26T05:58:10;21.60;90.10
56103;DHT22;41970;48.774;9.280;2023-06-26T06:00:37;21.70;90.20
56103;DHT22;41970;48.774;9.280;2023-06-26T06:03:03;21.80;89.80
56103;DHT22;41970;48.774;9.280;2023-06-26T06:05:29;21.80;90.00
56103;DHT22;41970;48.774;9.280;2023-06-26T06:07:54;21.80;90.10
56103;DHT22;41970;48.774;9.280;2023-06-26T06:10:20;21.90;90.00
56103;DHT22;41970;48.774;9.280;2023-06-26T06:12:46;22.00;90.20
56103;DHT22;41970;48.774;9.280;2023-06-26T06:15:12;22.00;90.10
56103;DHT22;41970;48.774;9.280;2023-06-26T06:17:40;22.10;90.20
56103;DHT22;41970;48.774;9.280;2023-06-26T06:20:06;22.10;90.10
56103;DHT22;41970;48.774;9.280;2023-06-26T06:22:32;22.30;90.10
56103;DHT22;41970;48.774;9.280;2023-06-26T06:24:57;22.30;90.10
56103;DHT22;41970;48.774;9.280;2023-06-26T06:27:23;22.40;90.10
56103;DHT22;41970;48.774;9.280;2023-06-26T06:29:49;22.50;90.10
56103;DHT22;41970;48.774;9.280;2023-06-26T06:32:15;22.60;89.90
56103;DHT22;41970;48.774;9.280;2023-06-26T06:34:40;22.70;90.00
56103;DHT22;41970;48.774;9.280;2023-06-26T06:37:06;22.90;90.10
56103;DHT22;41970;48.774;9.280;2023-06-26T06:39:32;23.00;88.70
56103;DHT22;41970;48.774;9.280;2023-06-26T06:41:58;23.00;89.20
56103;DHT22;41970;48.774;9.280;2023-06-26T06:44:23;23.10;89.20
56103;DHT22;41970;48.774;9.280;2023-06-26T06:46:49;23.30;89.30
56103;DHT22;41970;48.774;9.280;2023-06-26T06:49:15;23.40;89.30
56103;DHT22;41970;48.774;9.280;2023-06-26T06:51:40;23.60;90.00
56103;DHT22;41970;48.774;9.280;2023-06-26T06:54:06;23.80;88.50
56103;DHT22;41970;48.774;9.280;2023-06-26T06:56:32;23.90;89.00
56103;DHT22;41970;48.774;9.280;2023-06-26T06:58:58;23.80;88.40
56103;DHT22;41970;48.774;9.280;2023-06-26T07:01:24;24.00;88.70
56103;DHT22;41970;48.774;9.280;2023-06-26T07:03:49;24.20;88.30
56103;DHT22;41970;48.774;9.280;2023-06-26T07:06:18;24.50;87.90
56103;DHT22;41970;48.774;9.280;2023-06-26T07:08:44;25.00;86.80
56103;DHT22;41970;48.774;9.280;2023-06-26T07:11:10;25.00;85.90
56103;DHT22;41970;48.774;9.280;2023-06-26T07:13:35;25.10;85.80
56103;DHT22;41970;48.774;9.280;2023-06-26T07:16:02;25.50;85.60
56103;DHT22;41970;48.774;9.280;2023-06-26T07:18:27;25.80;84.40
56103;DHT22;41970;48.774;9.280;2023-06-26T07:20:53;25.80;84.20
56103;DHT22;41970;48.774;9.280;2023-06-26T07:23:19;26.20;83.70
56103;DHT22;41970;48.774;9.280;2023-06-26T07:25:45;26.50;82.80
56103;DHT22;41970;48.774;9.280;2023-06-26T07:28:13;26.90;82.60
56103;DHT22;41970;48.774;9.280;2023-06-26T07:30:39;27.50;81.50
56103;DHT22;41970;48.774;9.280;2023-06-26T07:33:05;27.70;80.20
56103;DHT22;41970;48.774;9.280;2023-06-26T07:35:31;27.90;78.60
56103;DHT22;41970;48.774;9.280;2023-06-26T07:37:57;28.10;78.00
56103;DHT22;41970;48.774;9.280;2023-06-26T07:40:23;28.10;77.60
56103;DHT22;41970;48.774;9.280;2023-06-26T07:42:48;28.10;77.40
56103;DHT22;41970;48.774;9.280;2023-06-26T07:45:14;28.40;77.70
56103;DHT22;41970;48.774;9.280;2023-06-26T07:47:40;28.70;77.30
56103;DHT22;41970;48.774;9.280;2023-06-26T07:50:06;29.00;77.40
56103;DHT22;41970;48.774;9.280;2023-06-26T07:52:32;29.30;76.80
56103;DHT22;41970;48.774;9.280;2023-06-26T07:54:58;29.80;74.90
56103;DHT22;41970;48.774;9.280;2023-06-26T07:57:24;29.90;73.60
56103;DHT22;41970;48.774;9.280;2023-06-26T07:59:50;30.00;73.70
56103;DHT22;41970;48.774;9.280;2023-06-26T08:02:16;30.20;71.90
56103;DHT22;41970;48.774;9.280;2023-06-26T08:04:41;30.50;71.80
56103;DHT22;41970;48.774;9.280;2023-06-26T08:07:07;30.60;71.90
56103;DHT22;41970;48.774;9.280;2023-06-26T08:09:34;30.90;70.30
56103;DHT22;41970;48.774;9.280;2023-06-26T08:11:59;31.20;69.20
56103;DHT22;41970;48.774;9.280;2023-06-26T08:14:26;31.30;70.50
56103;DHT22;41970;48.774;9.280;2023-06-26T08:16:51;31.50;67.50
56103;DHT22;41970;48.774;9.280;2023-06-26T08:19:17;31.60;69.80
56103;DHT22;41970;48.774;9.280;2023-06-26T08:21:44;31.90;67.30
56103;DHT22;41970;48.774;9.280;2023-06-26T08:24:10;31.80;65.60
56103;DHT22;41970;48.774;9.280;2023-06-26T08:26:37;31.80;65.90
56103;DHT22;41970;48.774;9.280;2023-06-26T08:29:03;31.80;66.70
56103;DHT22;41970;48.774;9.280;2023-06-26T08:31:35;32.00;64.50
56103;DHT22;41970;48.774;9.280;2023-06-26T08:34:02;32.10;64.80
56103;DHT22;41970;48.774;9.280;2023-06-26T08:36:28;32.00;65.20
56103;DHT22;41970;48.774;9.280;2023-06-26T08:38:54;32.30;65.30
56103;DHT22;41970;48.774;9.280;2023-06-26T08:41:20;32.40;63.30
56103;DHT22;41970;48.774;9.280;2023-06-26T08:43:46;32.30;64.00
56103;DHT22;41970;48.774;9.280;2023-06-26T08:46:12;32.20;63.80
56103;DHT22;41970;48.774;9.280;2023-06-26T08:48:38;32.20;63.60
56103;DHT22;41970;48.774;9.280;2023-06-26T08:51:11;32.10;64.30
56103;DHT22;41970;48.774;9.280;2023-06-26T08:56:10;32.20;63.30
56103;DHT22;41970;48.774;9.280;2023-06-26T08:58:38;32.20;62.70
56103;DHT22;41970;48.774;9.280;2023-06-26T09:01:04;32.20;63.20
56103;DHT22;41970;48.774;9.280;2023-06-26T09:03:31;32.20;62.50
56103;DHT22;41970;48.774;9.280;2023-06-26T09:05:58;32.20;62.90
56103;DHT22;41970;48.774;9.280;2023-06-26T09:08:24;32.20;63.10
56103;DHT22;41970;48.774;9.280;2023-06-26T09:10:50;32.30;62.10
56103;DHT22;41970;48.774;9.280;2023-06-26T09:13:16;32.30;63.40
56103;DHT22;41970;48.774;9.280;2023-06-26T09:15:44;32.40;62.80
56103;DHT22;41970;48.774;9.280;2023-06-26T09:18:11;32.70;62.80
56103;DHT22;41970;48.774;9.280;2023-06-26T09:20:37;32.70;61.80
56103;DHT22;41970;48.774;9.280;2023-06-26T09:23:03;32.50;61.80
56103;DHT22;41970;48.774;9.280;2023-06-26T09:25:30;32.50;61.70
56103;DHT22;41970;48.774;9.280;2023-06-26T09:27:56;32.60;62.50
56103;DHT22;41970;48.774;9.280;2023-06-26T09:30:22;32.60;63.00
56103;DHT22;41970;48.774;9.280;2023-06-26T09:32:48;32.60;62.20
56103;DHT22;41970;48.774;9.280;2023-06-26T09:35:16;32.60;62.60
56103;DHT22;41970;48.774;9.280;2023-06-26T09:37:42;32.40;62.50
56103;DHT22;41970;48.774;9.280;2023-06-26T09:40:09;32.50;62.00
56103;DHT22;41970;48.774;9.280;2023-06-26T09:42:35;32.60;61.70
56103;DHT22;41970;48.774;9.280;2023-06-26T09:45:02;32.40;62.20
56103;DHT22;41970;48.774;9.280;2023-06-26T09:47:30;32.40;61.20
56103;DHT22;41970;48.774;9.280;2023-06-26T09:49:56;32.50;61.80
56103;DHT22;41970;48.774;9.280;2023-06-26T09:52:26;32.50;61.60
56103;DHT22;41970;48.774;9.280;2023-06-26T09:55:07;32.50;61.20
56103;DHT22;41970;48.774;9.280;2023-06-26T09:57:35;32.50;62.00
56103;DHT22;41970;48.774;9.280;2023-06-26T10:00:02;32.40;61.50
56103;DHT22;41970;48.774;9.280;2023-06-26T10:02:28;32.40;62.10
56103;DHT22;41970;48.774;9.280;2023-06-26T10:04:54;32.20;61.10
56103;DHT22;41970;48.774;9.280;2023-06-26T10:07:20;32.20;61.70
56103;DHT22;41970;48.774;9.280;2023-06-26T10:09:49;32.10;61.50
56103;DHT22;41970;48.774;9.280;2023-06-26T10:12:29;32.20;61.30
56103;DHT22;41970;48.774;9.280;2023-06-26T10:14:56;32.00;62.20
56103;DHT22;41970;48.774;9.280;2023-06-26T10:17:25;31.90;62.60
56103;DHT22;41970;48.774;9.280;2023-06-26T10:19:52;31.80;62.80
56103;DHT22;41970;48.774;9.280;2023-06-26T10:22:21;31.50;63.20
56103;DHT22;41970;48.774;9.280;2023-06-26T10:24:50;31.30;64.10
56103;DHT22;41970;48.774;9.280;2023-06-26T10:27:20;31.20;65.20
56103;DHT22;41970;48.774;9.280;2023-06-26T10:29:51;31.20;64.60
56103;DHT22;41970;48.774;9.280;2023-06-26T10:32:20;31.20;65.60
56103;DHT22;41970;48.774;9.280;2023-06-26T10:34:47;31.10;65.50
56103;DHT22;41970;48.774;9.280;2023-06-26T10:37:13;31.10;66.10
56103;DHT22;41970;48.774;9.280;2023-06-26T10:39:52;31.10;67.30
56103;DHT22;41970;48.774;9.280;2023-06-26T10:42:28;31.20;66.80
56103;DHT22;41970;48.774;9.280;2023-06-26T10:45:10;31.10;67.20
56103;DHT22;41970;48.774;9.280;2023-06-26T10:47:37;31.00;67.50
56103;DHT22;41970;48.774;9.280;2023-06-26T10:50:24;31.00;67.40
56103;DHT22;41970;48.774;9.280;2023-06-26T10:56:03;30.80;68.10
56103;DHT22;41970;48.774;9.280;2023-06-26T10:58:34;30.80;68.70
56103;DHT22;41970;48.774;9.280;2023-06-26T11:01:21;30.70;69.00
56103;DHT22;41970;48.774;9.280;2023-06-26T11:03:48;30.60;68.80
56103;DHT22;41970;48.774;9.280;2023-06-26T11:08:50;30.40;66.40
56103;DHT22;41970;48.774;9.280;2023-06-26T11:11:19;30.40;67.30
56103;DHT22;41970;48.774;9.280;2023-06-26T11:13:46;30.40;67.70
56103;DHT22;41970;48.774;9.280;2023-06-26T11:16:13;30.60;67.20
56103;DHT22;41970;48.774;9.280;2023-06-26T11:18:40;30.60;66.80
56103;DHT22;41970;48.774;9.280;2023-06-26T11:21:10;30.80;66.50
56103;DHT22;41970;48.774;9.280;2023-06-26T11:23:40;30.80;68.00
56103;DHT22;41970;48.774;9.280;2023-06-26T11:26:20;30.90;67.50
56103;DHT22;41970;48.774;9.280;2023-06-26T11:28:55;31.00;68.10
56103;DHT22;41970;48.774;9.280;2023-06-26T11:31:25;31.10;66.70
56103;DHT22;41970;48.774;9.280;2023-06-26T11:33:52;31.20;68.10
56103;DHT22;41970;48.774;9.280;2023-06-26T11:36:18;31.20;67.50
56103;DHT22;41970;48.774;9.280;2023-06-26T11:38:44;31.20;67.40
56103;DHT22;41970;48.774;9.280;2023-06-26T11:41:09;31.20;67.20
56103;DHT22;41970;48.774;9.280;2023-06-26T11:43:35;31.10;67.20
56103;DHT22;41970;48.774;9.280;2023-06-26T11:46:01;31.00;67.50
56103;DHT22;41970;48.774;9.280;2023-06-26T11:48:27;31.00;68.50
56103;DHT22;41970;48.774;9.280;2023-06-26T11:50:54;31.10;68.20
56103;DHT22;41970;48.774;9.280;2023-06-26T11:53:20;31.10;67.50
56103;DHT22;41970;48.774;9.280;2023-06-26T11:55:46;31.20;68.00
56103;DHT22;41970;48.774;9.280;2023-06-26T11:58:11;31.20;68.70
56103;DHT22;41970;48.774;9.280;2023-06-26T12:00:43;31.30;68.50
56103;DHT22;41970;48.774;9.280;2023-06-26T12:03:09;31.30;68.00
56103;DHT22;41970;48.774;9.280;2023-06-26T12:05:35;31.30;67.80
56103;DHT22;41970;48.774;9.280;2023-06-26T12:08:01;31.30;67.80
56103;DHT22;41970;48.774;9.280;2023-06-26T12:10:29;31.30;68.20
56103;DHT22;41970;48.774;9.280;2023-06-26T12:12:54;31.20;69.60
56103;DHT22;41970;48.774;9.280;2023-06-26T12:15:24;31.10;71.20
56103;DHT22;41970;48.774;9.280;2023-06-26T12:17:50;31.00;72.00
56103;DHT22;41970;48.774;9.280;2023-06-26T12:20:22;30.90;71.90
56103;DHT22;41970;48.774;9.280;2023-06-26T12:22:48;30.70;72.70
56103;DHT22;41970;48.774;9.280;2023-06-26T12:25:15;30.70;73.90
56103;DHT22;41970;48.774;9.280;2023-06-26T12:27:40;30.60;73.50
56103;DHT22;41970;48.774;9.280;2023-06-26T12:30:07;30.60;74.40
56103;DHT22;41970;48.774;9.280;2023-06-26T12:32:34;30.70;74.40
56103;DHT22;41970;48.774;9.280;2023-06-26T12:35:00;30.70;74.30
56103;DHT22;41970;48.774;9.280;2023-06-26T12:37:26;30.70;73.80
56103;DHT22;41970;48.774;9.280;2023-06-26T12:39:57;30.70;73.90
56103;DHT22;41970;48.774;9.280;2023-06-26T12:42:24;30.80;73.20
56103;DHT22;41970;48.774;9.280;2023-06-26T12:44:51;30.70;73.90
56103;DHT22;41970;48.774;9.280;2023-06-26T12:47:22;30.70;73.70
56103;DHT22;41970;48.774;9.280;2023-06-26T12:49:52;30.70;74.40
56103;DHT22;41970;48.774;9.280;2023-06-26T12:52:18;30.70;74.40
56103;DHT22;41970;48.774;9.280;2023-06-26T12:54:45;30.80;73.90
56103;DHT22;41970;48.774;9.280;2023-06-26T12:57:12;30.80;73.50
56103;DHT22;41970;48.774;9.280;2023-06-26T12:59:41;30.90;74.00
56103;DHT22;41970;48.774;9.280;2023-06-26T13:02:08;30.90;73.80
56103;DHT22;41970;48.774;9.280;2023-06-26T13:04:34;30.90;73.70
56103;DHT22;41970;48.774;9.280;2023-06-26T13:07:01;31.00;73.50
56103;DHT22;41970;48.774;9.280;2023-06-26T13:09:26;31.10;73.30
56103;DHT22;41970;48.774;9.280;2023-06-26T13:11:53;31.20;72.50
56103;DHT22;41970;48.774;9.280;2023-06-26T13:14:20;31.10;72.20
56103;DHT22;41970;48.774;9.280;2023-06-26T13:16:46;31.10;72.10
56103;DHT22;41970;48.774;9.280;2023-06-26T13:19:13;30.80;71.70
56103;DHT22;41970;48.774;9.280;2023-06-26T13:21:38;30.60;73.40
56103;DHT22;41970;48.774;9.280;2023-06-26T13:24:06;30.70;72.80
56103;DHT22;41970;48.774;9.280;2023-06-26T13:26:32;30.70;72.90
56103;DHT22;41970;48.774;9.280;2023-06-26T13:28:58;30.70;73.00
56103;DHT22;41970;48.774;9.280;2023-06-26T13:31:24;30.60;72.50
56103;DHT22;41970;48.774;9.280;2023-06-26T13:33:49;30.70;72.90
56103;DHT22;41970;48.774;9.280;2023-06-26T13:36:18;30.70;72.10
56103;DHT22;41970;48.774;9.280;2023-06-26T13:38:44;30.70;71.90
56103;DHT22;41970;48.774;9.280;2023-06-26T13:41:11;30.70;72.30
56103;DHT22;41970;48.774;9.280;2023-06-26T13:43:36;30.60;72.50
56103;DHT22;41970;48.774;9.280;2023-06-26T13:46:03;30.50;72.20
56103;DHT22;41970;48.774;9.280;2023-06-26T13:48:29;30.60;72.30
56103;DHT22;41970;48.774;9.280;2023-06-26T13:50:55;30.70;72.50
56103;DHT22;41970;48.774;9.280;2023-06-26T13:53:22;30.70;71.80
56103;DHT22;41970;48.774;9.280;2023-06-26T13:55:48;30.80;70.00
56103;DHT22;41970;48.774;9.280;2023-06-26T13:58:14;30.90;69.90
56103;DHT22;41970;48.774;9.280;2023-06-26T14:00:40;30.80;69.40
56103;DHT22;41970;48.774;9.280;2023-06-26T14:03:06;30.70;67.50
56103;DHT22;41970;48.774;9.280;2023-06-26T14:05:36;30.70;68.40
56103;DHT22;41970;48.774;9.280;2023-06-26T14:08:08;30.70;67.30
56103;DHT22;41970;48.774;9.280;2023-06-26T14:10:34;30.70;67.10
56103;DHT22;41970;48.774;9.280;2023-06-26T14:13:00;30.70;65.70
56103;DHT22;41970;48.774;9.280;2023-06-26T14:15:26;30.60;66.30
56103;DHT22;41970;48.774;9.280;2023-06-26T14:17:52;30.60;65.70
56103;DHT22;41970;48.774;9.280;2023-06-26T14:20:18;30.60;64.70
56103;DHT22;41970;48.774;9.280;2023-06-26T14:22:47;30.50;64.20
56103;DHT22;41970;48.774;9.280;2023-06-26T14:25:13;30.50;64.30
56103;DHT22;41970;48.774;9.280;2023-06-26T14:27:39;30.40;64.90
56103;DHT22;41970;48.774;9.280;2023-06-26T14:30:06;30.40;65.10
56103;DHT22;41970;48.774;9.280;2023-06-26T14:32:36;30.40;64.80
56103;DHT22;41970;48.774;9.280;2023-06-26T14:35:02;30.40;64.80
56103;DHT22;41970;48.774;9.280;2023-06-26T14:37:29;30.50;64.30
56103;DHT22;41970;48.774;9.280;2023-06-26T14:39:56;30.60;64.00
56103;DHT22;41970;48.774;9.280;2023-06-26T14:42:22;30.60;63.10
56103;DHT22;41970;48.774;9.280;2023-06-26T14:44:50;30.50;64.40
56103;DHT22;41970;48.774;9.280;2023-06-26T14:47:19;30.50;63.30
56103;DHT22;41970;48.774;9.280;2023-06-26T14:49:45;30.60;64.30
56103;DHT22;41970;48.774;9.280;2023-06-26T14:52:11;30.50;63.50
56103;DHT22;41970;48.774;9.280;2023-06-26T14:54:37;30.40;64.00
56103;DHT22;41970;48.774;9.280;2023-06-26T14:57:07;30.30;64.10
56103;DHT22;41970;48.774;9.280;2023-06-26T14:59:33;30.10;64.10
56103;DHT22;41970;48.774;9.280;2023-06-26T15:02:00;30.10;64.60
56103;DHT22;41970;48.774;9.280;2023-06-26T15:04:25;30.00;65.30
56103;DHT22;41970;48.774;9.280;2023-06-26T15:06:52;30.10;64.60
56103;DHT22;41970;48.774;9.280;2023-06-26T15:09:18;30.20;65.40
56103;DHT22;41970;48.774;9.280;2023-06-26T15:11:46;30.10;65.40
56103;DHT22;41970;48.774;9.280;2023-06-26T15:14:12;30.20;65.90
56103;DHT22;41970;48.774;9.280;2023-06-26T15:16:38;30.20;65.40
56103;DHT22;41970;48.774;9.280;2023-06-26T15:19:04;30.10;66.80
56103;DHT22;41970;48.774;9.280;2023-06-26T15:21:29;30.00;65.70
56103;DHT22;41970;48.774;9.280;2023-06-26T15:23:56;30.00;66.30
56103;DHT22;41970;48.774;9.280;2023-06-26T15:26:21;29.90;66.00
56103;DHT22;41970;48.774;9.280;2023-06-26T15:28:47;29.90;66.40
56103;DHT22;41970;48.774;9.280;2023-06-26T15:31:13;29.80;67.20
56103;DHT22;41970;48.774;9.280;2023-06-26T15:33:39;29.90;67.10
56103;DHT22;41970;48.774;9.280;2023-06-26T15:36:05;29.90;66.20
56103;DHT22;41970;48.774;9.280;2023-06-26T15:38:31;29.90;65.90
56103;DHT22;41970;48.774;9.280;2023-06-26T15:40:57;29.90;66.00
56103;DHT22;41970;48.774;9.280;2023-06-26T15:43:22;29.80;65.80